createdAt,value
2022-08-09T00:00:15.783Z,2.30
2022-08-09T00:02:49.328Z,2.33
2022-08-09T00:06:18.917Z,2.07
2022-08-09T00:08:11.081Z,2.23
2022-08-09T00:10:39.741Z,2.13
2022-08-09T00:13:17.186Z,2.30
2022-08-09T00:15:58.678Z,2.73
2022-08-09T00:18:34.619Z,2.20
2022-08-09T00:21:04.681Z,2.53
2022-08-09T00:23:55.161Z,1.77
2022-08-09T00:26:30.037Z,2.33
2022-08-09T00:29:01.600Z,1.90
2022-08-09T00:31:56.763Z,1.90
2022-08-09T00:34:18.982Z,2.27
2022-08-09T00:36:47.968Z,2.77
2022-08-09T00:40:09.274Z,2.73
2022-08-09T00:44:12.993Z,2.70
2022-08-09T00:44:55.491Z,2.70
2022-08-09T00:47:25.016Z,2.70
2022-08-09T00:49:55.064Z,2.10
2022-08-09T00:52:30.388Z,1.90
2022-08-09T00:55:02.115Z,2.50
2022-08-09T00:57:34.762Z,2.53
2022-08-09T01:00:21.093Z,2.17
2022-08-09T01:02:52.127Z,2.17
2022-08-09T01:05:51.963Z,2.20
2022-08-09T01:08:26.621Z,2.33
2022-08-09T01:11:08.648Z,2.60
2022-08-09T01:13:58.675Z,2.53
2022-08-09T01:16:31.288Z,2.70
2022-08-09T01:19:04.393Z,2.47
2022-08-09T01:21:51.361Z,3.03
2022-08-09T01:24:32.003Z,2.20
2022-08-09T01:27:07.915Z,2.20
2022-08-09T01:29:55.884Z,2.87
2022-08-09T01:32:46.049Z,2.87
2022-08-09T01:35:37.984Z,2.43
2022-08-09T01:38:15.533Z,2.90
2022-08-09T01:40:52.752Z,2.40
2022-08-09T01:43:50.163Z,2.80
2022-08-09T01:46:24.553Z,2.20
2022-08-09T01:48:57.231Z,2.57
2022-08-09T01:51:32.499Z,3.37
2022-08-09T01:54:03.960Z,2.50
2022-08-09T01:56:34.239Z,2.80
2022-08-09T01:59:08.975Z,2.57
2022-08-09T02:01:59.598Z,2.60
2022-08-09T02:04:28.330Z,2.53
2022-08-09T02:08:34.847Z,2.60
2022-08-09T02:10:06.247Z,3.20
2022-08-09T02:12:36.232Z,2.87
2022-08-09T02:15:08.298Z,2.50
2022-08-09T02:18:09.146Z,2.90
2022-08-09T02:20:34.119Z,2.83
2022-08-09T02:23:09.090Z,3.03
2022-08-09T02:25:41.935Z,2.80
2022-08-09T02:28:17.756Z,2.60
2022-08-09T02:30:51.724Z,3.03
2022-08-09T02:33:23.809Z,2.47
2022-08-09T02:36:20.989Z,3.03
2022-08-09T02:38:52.622Z,3.70
2022-08-09T02:41:28.331Z,3.57
2022-08-09T02:44:00.510Z,2.90
2022-08-09T02:46:38.526Z,3.17
2022-08-09T02:49:10.703Z,2.67
2022-08-09T02:51:42.375Z,2.83
2022-08-09T02:54:16.522Z,2.17
2022-08-09T02:56:51.557Z,3.10
2022-08-09T02:59:26.256Z,3.33
2022-08-09T03:02:11.928Z,4.00
2022-08-09T03:04:46.181Z,2.87
2022-08-09T03:07:21.106Z,3.47
2022-08-09T03:09:54.327Z,3.60
2022-08-09T03:12:27.118Z,2.90
2022-08-09T03:14:55.815Z,3.00
2022-08-09T03:17:26.590Z,3.23
2022-08-09T03:20:03.307Z,3.40
2022-08-09T03:22:42.069Z,3.33
2022-08-09T03:25:21.772Z,2.53
2022-08-09T03:27:56.313Z,4.10
2022-08-09T03:30:33.237Z,3.13
2022-08-09T03:33:17.850Z,3.33
2022-08-09T03:36:12.819Z,2.50
2022-08-09T03:38:41.934Z,3.17
2022-08-09T03:41:15.554Z,3.80
2022-08-09T03:44:03.758Z,3.37
2022-08-09T03:46:33.724Z,2.63
2022-08-09T03:49:08.436Z,4.77
2022-08-09T03:51:57.700Z,2.73
2022-08-09T03:54:32.124Z,2.87
2022-08-09T03:57:18.529Z,3.73
2022-08-09T03:59:55.036Z,2.80
2022-08-09T04:02:27.891Z,3.43
2022-08-09T04:05:01.369Z,2.67
2022-08-09T04:07:52.374Z,3.30
2022-08-09T04:10:28.356Z,3.83
2022-08-09T04:13:01.165Z,2.93
2022-08-09T04:15:52.074Z,4.13
2022-08-09T04:18:19.356Z,2.60
2022-08-09T04:20:51.247Z,3.07
2022-08-09T04:23:24.554Z,3.50
2022-08-09T04:25:54.569Z,2.80
2022-08-09T04:28:30.562Z,2.07
2022-08-09T04:31:05.673Z,2.70
2022-08-09T04:33:47.508Z,3.27
2022-08-09T04:36:24.238Z,3.27
2022-08-09T04:38:52.575Z,3.20
2022-08-09T04:41:23.975Z,2.90
2022-08-09T04:44:05.042Z,3.00
2022-08-09T04:46:37.761Z,3.17
2022-08-09T04:49:40.460Z,3.20
2022-08-09T04:52:18.315Z,3.07
2022-08-09T04:54:51.602Z,3.07
2022-08-09T04:57:24.015Z,3.00
2022-08-09T04:59:54.369Z,3.57
2022-08-09T05:02:22.753Z,3.40
2022-08-09T05:04:55.355Z,3.50
2022-08-09T05:07:27.673Z,3.77
2022-08-09T05:09:57.746Z,2.73
2022-08-09T05:12:29.874Z,3.80
2022-08-09T05:14:59.141Z,3.30
2022-08-09T05:18:39.351Z,2.93
2022-08-09T05:20:15.156Z,3.87
2022-08-09T05:23:58.608Z,3.33
2022-08-09T05:25:32.828Z,3.70
2022-08-09T05:28:01.877Z,3.27
2022-08-09T05:30:31.335Z,3.37
2022-08-09T05:33:00.694Z,3.87
2022-08-09T05:35:30.357Z,3.10
2022-08-09T05:38:08.276Z,3.57
2022-08-09T05:40:36.416Z,2.97
2022-08-09T05:43:04.872Z,3.30
2022-08-09T05:45:43.547Z,3.43
2022-08-09T05:48:21.229Z,2.70
2022-08-09T05:51:29.748Z,2.70
2022-08-09T05:53:56.650Z,2.97
2022-08-09T05:56:27.178Z,2.90
2022-08-09T05:58:58.580Z,3.13
2022-08-09T06:01:33.487Z,2.77
2022-08-09T06:04:05.825Z,3.73
2022-08-09T06:06:34.310Z,3.10
2022-08-09T06:09:09.982Z,2.83
2022-08-09T06:11:57.720Z,3.73
2022-08-09T06:14:26.309Z,3.30
2022-08-09T06:16:57.372Z,2.43
2022-08-09T06:19:27.712Z,3.33
2022-08-09T06:21:58.410Z,3.63
2022-08-09T06:24:28.576Z,3.50
2022-08-09T06:26:57.023Z,4.50
2022-08-09T06:29:27.054Z,3.30
2022-08-09T06:32:09.249Z,3.13
2022-08-09T06:34:43.690Z,3.20
2022-08-09T06:37:11.799Z,3.43
2022-08-09T06:39:58.333Z,3.67
2022-08-09T06:42:30.855Z,4.17
2022-08-09T06:46:03.351Z,3.10
2022-08-09T06:47:49.957Z,3.37
2022-08-09T06:50:31.232Z,3.10
2022-08-09T06:53:00.822Z,3.07
2022-08-09T06:55:32.961Z,3.73
2022-08-09T06:58:04.444Z,3.50
2022-08-09T07:00:49.990Z,4.20
2022-08-09T07:03:27.010Z,3.13
2022-08-09T07:06:04.576Z,3.00
2022-08-09T07:08:34.544Z,3.10
2022-08-09T07:11:06.322Z,3.00
2022-08-09T07:13:45.380Z,3.20
2022-08-09T07:16:41.822Z,3.73
2022-08-09T07:19:15.531Z,3.50
2022-08-09T07:21:57.167Z,3.77
2022-08-09T07:24:32.318Z,3.03
2022-08-09T07:27:27.429Z,3.60
2022-08-09T07:30:00.454Z,2.73
2022-08-09T07:32:32.303Z,3.37
2022-08-09T07:35:07.944Z,3.23
2022-08-09T07:37:43.360Z,3.57
2022-08-09T07:40:16.834Z,2.80
2022-08-09T07:42:51.611Z,4.20
2022-08-09T07:45:39.150Z,4.33
2022-08-09T07:48:22.553Z,3.37
2022-08-09T07:51:10.371Z,2.73
2022-08-09T07:54:04.291Z,2.27
2022-08-09T07:56:33.846Z,3.47
2022-08-09T07:59:12.634Z,3.07
2022-08-09T08:01:42.278Z,2.60
2022-08-09T08:04:10.879Z,2.13
2022-08-09T08:06:55.834Z,2.93
2022-08-09T08:09:35.502Z,2.90
2022-08-09T08:12:27.594Z,3.03
2022-08-09T08:15:02.263Z,2.93
2022-08-09T08:17:52.902Z,3.27
2022-08-09T08:20:19.503Z,3.00
2022-08-09T08:23:01.558Z,2.90
2022-08-09T08:25:44.428Z,2.70
2022-08-09T08:28:15.240Z,2.90
2022-08-09T08:30:45.241Z,3.07
2022-08-09T08:33:22.873Z,2.40
2022-08-09T08:36:00.541Z,3.20
2022-08-09T08:38:31.818Z,2.90
2022-08-09T08:41:01.759Z,2.67
2022-08-09T08:43:34.837Z,3.03
2022-08-09T08:46:31.757Z,3.30
2022-08-09T08:48:57.970Z,2.97
2022-08-09T08:51:38.856Z,2.87
2022-08-09T08:54:11.810Z,2.73
2022-08-09T08:56:49.363Z,2.67
2022-08-09T08:59:19.734Z,2.70
2022-08-09T09:01:53.212Z,2.60
2022-08-09T09:04:33.171Z,2.97
2022-08-09T09:07:12.102Z,2.20
2022-08-09T09:10:01.541Z,2.77
2022-08-09T09:12:34.159Z,2.53
2022-08-09T09:15:05.735Z,2.53
2022-08-09T09:17:48.620Z,1.90
2022-08-09T09:20:21.407Z,2.63
2022-08-09T09:23:01.715Z,2.87
2022-08-09T09:26:02.186Z,2.10
2022-08-09T09:29:02.567Z,2.30
2022-08-09T09:32:03.367Z,2.60
2022-08-09T09:34:18.404Z,2.20
2022-08-09T09:36:54.249Z,2.70
2022-08-09T09:39:25.600Z,2.63
2022-08-09T09:42:25.715Z,2.40
2022-08-09T09:44:58.925Z,2.50
2022-08-09T09:47:28.815Z,2.60
2022-08-09T09:50:15.076Z,1.97
2022-08-09T09:52:53.892Z,2.27
2022-08-09T09:55:31.218Z,2.23
2022-08-09T09:58:19.274Z,2.57
2022-08-09T10:00:54.910Z,2.00
2022-08-09T10:03:57.337Z,2.10
2022-08-09T10:06:32.158Z,2.27
2022-08-09T10:09:11.895Z,2.20
2022-08-09T10:12:11.365Z,1.97
2022-08-09T10:14:48.035Z,1.80
2022-08-09T10:17:40.687Z,2.13
2022-08-09T10:20:27.805Z,2.10
2022-08-09T10:23:17.157Z,2.20
2022-08-09T10:26:06.955Z,3.30
2022-08-09T10:28:37.692Z,2.30
2022-08-09T10:34:10.068Z,2.00
2022-08-09T10:36:45.122Z,2.00
2022-08-09T10:39:18.352Z,2.33
2022-08-09T10:41:49.462Z,2.30
2022-08-09T10:44:21.757Z,2.37
2022-08-09T10:48:25.946Z,2.13
2022-08-09T10:50:21.044Z,2.37
2022-08-09T10:53:10.741Z,2.33
2022-08-09T10:55:58.134Z,2.10
2022-08-09T10:58:33.689Z,2.07
2022-08-09T11:03:03.192Z,2.50
2022-08-09T11:04:28.158Z,2.37
2022-08-09T11:07:28.105Z,2.27
2022-08-09T11:10:16.558Z,2.23
2022-08-09T11:13:49.358Z,2.23
2022-08-09T11:16:35.080Z,2.27
2022-08-09T11:19:09.365Z,2.43
2022-08-09T11:21:57.322Z,2.53
2022-08-09T11:25:08.501Z,2.20
2022-08-09T11:28:04.630Z,2.20
2022-08-09T11:30:37.869Z,2.30
2022-08-09T11:33:10.520Z,2.40
2022-08-09T11:35:49.698Z,2.50
2022-08-09T11:38:32.721Z,2.50
2022-08-09T11:41:05.939Z,2.20
2022-08-09T11:43:42.839Z,2.10
2022-08-09T11:46:12.397Z,1.83
2022-08-09T11:48:52.272Z,2.17
2022-08-09T11:52:49.360Z,2.20
2022-08-09T11:54:28.038Z,2.47
2022-08-09T11:57:47.992Z,2.17
2022-08-09T12:00:27.768Z,2.10
2022-08-09T12:02:58.784Z,1.60
2022-08-09T12:05:39.630Z,1.83
2022-08-09T12:08:12.415Z,1.70
2022-08-09T12:10:48.496Z,1.90
2022-08-09T12:14:07.918Z,1.83
2022-08-09T12:16:37.871Z,1.90
2022-08-09T12:19:09.999Z,1.60
2022-08-09T12:21:50.558Z,1.70
2022-08-09T12:24:25.847Z,1.60
2022-08-09T12:29:12.311Z,1.50
2022-08-09T12:29:59.802Z,1.80
2022-08-09T12:32:33.211Z,1.67
2022-08-09T12:35:05.182Z,1.37
2022-08-09T12:37:49.616Z,1.77
2022-08-09T12:40:21.067Z,1.63
2022-08-09T12:42:51.025Z,1.30
2022-08-09T12:45:33.854Z,1.93
2022-08-09T12:48:20.159Z,2.00
2022-08-09T12:50:59.365Z,1.60
2022-08-09T12:53:34.971Z,1.60
2022-08-09T12:56:12.496Z,1.37
2022-08-09T12:58:52.014Z,1.60
2022-08-09T13:01:28.416Z,1.30
2022-08-09T13:03:59.562Z,1.63
2022-08-09T13:06:34.451Z,1.90
2022-08-09T13:09:07.346Z,1.70
2022-08-09T13:11:39.655Z,1.30
2022-08-09T13:14:41.457Z,1.83
2022-08-09T13:17:08.324Z,1.87
2022-08-09T13:20:08.970Z,1.50
2022-08-09T13:22:37.825Z,1.53
2022-08-09T13:25:24.204Z,1.53
2022-08-09T13:27:56.617Z,1.40
2022-08-09T13:31:10.842Z,1.50
2022-08-09T13:33:52.463Z,1.27
2022-08-09T13:36:39.458Z,1.47
2022-08-09T13:41:46.792Z,1.50
2022-08-09T13:42:00.900Z,1.77
2022-08-09T13:44:29.962Z,1.60
2022-08-09T13:47:16.799Z,1.50
2022-08-09T13:49:57.220Z,1.20
2022-08-09T13:52:26.938Z,1.63
2022-08-09T13:55:00.917Z,1.43
2022-08-09T13:57:36.629Z,1.20
2022-08-09T14:00:12.065Z,1.40
2022-08-09T14:03:04.534Z,1.47
2022-08-09T14:05:58.212Z,1.20
2022-08-09T14:08:20.924Z,1.10
2022-08-09T14:10:53.140Z,1.50
2022-08-09T14:13:28.498Z,1.10
2022-08-09T14:16:14.169Z,1.20
2022-08-09T14:18:46.051Z,1.07
2022-08-09T14:21:20.282Z,3.83
2022-08-09T14:23:53.890Z,1.20
2022-08-09T14:26:32.143Z,1.00
2022-08-09T14:29:01.607Z,1.30
2022-08-09T14:31:50.270Z,1.50
2022-08-09T14:34:27.380Z,0.90
2022-08-09T14:37:02.479Z,1.10
2022-08-09T14:39:40.249Z,1.10
2022-08-09T14:42:31.744Z,1.30
2022-08-09T14:46:55.435Z,1.20
2022-08-09T14:47:58.069Z,1.00
2022-08-09T14:50:30.566Z,0.90
2022-08-09T14:52:59.201Z,1.03
2022-08-09T14:55:32.113Z,1.10
2022-08-09T14:58:04.818Z,1.37
2022-08-09T15:00:34.329Z,1.00
2022-08-09T15:03:05.361Z,1.30
2022-08-09T15:05:34.006Z,1.67
2022-08-09T15:08:05.227Z,0.93
2022-08-09T15:10:35.057Z,0.87
2022-08-09T15:13:05.609Z,0.80
2022-08-09T15:15:39.077Z,0.90
2022-08-09T15:18:14.132Z,0.93
2022-08-09T15:21:56.204Z,1.20
2022-08-09T15:24:02.246Z,0.90
2022-08-09T15:26:30.966Z,1.10
2022-08-09T15:29:04.747Z,1.30
2022-08-09T15:31:40.971Z,4.30
2022-08-09T15:34:31.888Z,1.20
2022-08-09T15:37:01.088Z,1.00
2022-08-09T15:39:43.857Z,0.90
2022-08-09T15:42:21.868Z,1.07
2022-08-09T15:44:51.586Z,1.00
2022-08-09T15:47:21.556Z,0.90
2022-08-09T15:50:03.509Z,0.67
2022-08-09T15:52:32.901Z,1.07
2022-08-09T15:55:01.846Z,1.00
2022-08-09T15:57:34.295Z,0.70
2022-08-09T16:00:14.114Z,0.90
2022-08-09T16:02:53.352Z,1.10
2022-08-09T16:05:24.320Z,1.30
2022-08-09T16:07:52.363Z,1.03
2022-08-09T16:10:56.157Z,1.03
2022-08-09T16:13:20.793Z,1.00
2022-08-09T16:16:09.856Z,1.03
2022-08-09T16:18:44.599Z,1.00
2022-08-09T16:21:17.651Z,1.03
2022-08-09T16:23:55.614Z,1.03
2022-08-09T16:26:35.254Z,1.07
2022-08-09T16:29:11.800Z,1.37
2022-08-09T16:32:19.749Z,1.13
2022-08-09T16:34:54.961Z,1.30
2022-08-09T16:37:20.479Z,1.17
2022-08-09T16:40:10.057Z,1.07
2022-08-09T16:42:39.152Z,0.93
2022-08-09T16:45:14.762Z,1.00
2022-08-09T16:48:43.171Z,1.33
2022-08-09T16:50:34.977Z,1.30
2022-08-09T16:53:06.889Z,1.33
2022-08-09T16:55:58.494Z,1.60
2022-08-09T16:58:25.870Z,1.20
2022-08-09T17:00:54.903Z,1.10
2022-08-09T17:03:25.092Z,1.20
2022-08-09T17:06:08.144Z,1.40
2022-08-09T17:08:58.789Z,1.53
2022-08-09T17:11:40.781Z,1.10
2022-08-09T17:14:25.486Z,1.20
2022-08-09T17:16:59.704Z,1.00
2022-08-09T17:20:05.090Z,1.60
2022-08-09T17:22:23.493Z,0.90
2022-08-09T17:24:55.167Z,1.17
2022-08-09T17:27:23.833Z,1.30
2022-08-09T17:29:52.311Z,1.20
2022-08-09T17:32:34.786Z,1.70
2022-08-09T17:35:11.651Z,1.20
2022-08-09T17:38:11.376Z,1.37
2022-08-09T17:40:31.986Z,1.30
2022-08-09T17:43:11.188Z,1.63
2022-08-09T17:46:04.184Z,1.60
2022-08-09T17:48:35.227Z,1.57
2022-08-09T17:51:18.223Z,1.07
2022-08-09T17:53:53.635Z,1.50
2022-08-09T17:56:27.068Z,1.27
2022-08-09T17:58:56.969Z,1.50
2022-08-09T18:01:25.200Z,1.57
2022-08-09T18:03:54.782Z,1.17
2022-08-09T18:06:31.670Z,1.27
2022-08-09T18:09:03.334Z,1.33
2022-08-09T18:12:04.886Z,1.00
2022-08-09T18:14:22.167Z,1.13
2022-08-09T18:16:50.505Z,1.40
2022-08-09T18:20:57.184Z,1.30
2022-08-09T18:22:13.142Z,1.53
2022-08-09T18:24:45.562Z,1.60
2022-08-09T18:27:49.140Z,1.20
2022-08-09T18:30:41.256Z,1.63
2022-08-09T18:32:53.964Z,1.10
2022-08-09T18:35:58.059Z,1.53
2022-08-09T18:38:13.240Z,1.40
2022-08-09T18:40:43.077Z,1.83
2022-08-09T18:43:13.033Z,1.40
2022-08-09T18:46:51.210Z,1.67
2022-08-09T18:48:33.592Z,1.60
2022-08-09T18:51:03.663Z,1.00
2022-08-09T18:53:55.972Z,1.30
2022-08-09T18:56:28.215Z,0.97
2022-08-09T18:58:57.014Z,1.40
2022-08-09T19:01:25.843Z,1.83
2022-08-09T19:04:06.234Z,2.00
2022-08-09T19:06:50.424Z,1.47
2022-08-09T19:10:12.909Z,1.53
2022-08-09T19:12:09.691Z,1.93
2022-08-09T19:14:39.070Z,2.13
2022-08-09T19:17:11.514Z,2.00
2022-08-09T19:19:42.217Z,2.00
2022-08-09T19:22:11.984Z,1.50
2022-08-09T19:25:11.778Z,1.83
2022-08-09T19:27:34.826Z,1.70
2022-08-09T19:30:23.219Z,1.57
2022-08-09T19:32:53.120Z,1.80
2022-08-09T19:35:26.319Z,2.10
2022-08-09T19:37:56.149Z,1.63
2022-08-09T19:40:34.017Z,1.40
2022-08-09T19:43:05.290Z,1.83
2022-08-09T19:45:40.145Z,1.77
2022-08-09T19:48:10.743Z,1.80
2022-08-09T19:50:49.651Z,2.00
2022-08-09T19:53:20.858Z,1.83
2022-08-09T19:56:01.935Z,2.30
2022-08-09T19:58:31.579Z,1.90
2022-08-09T20:01:01.568Z,2.20
2022-08-09T20:04:16.789Z,2.03
2022-08-09T20:06:23.207Z,2.00
2022-08-09T20:08:55.320Z,2.40
2022-08-09T20:11:27.123Z,2.10
2022-08-09T20:14:02.045Z,2.07
2022-08-09T20:16:53.828Z,2.07
2022-08-09T20:19:48.018Z,1.70
2022-08-09T20:22:09.904Z,1.97
2022-08-09T20:24:40.899Z,1.90
2022-08-09T20:27:11.608Z,2.00
2022-08-09T20:29:42.488Z,1.73
2022-08-09T20:32:30.641Z,1.87
2022-08-09T20:35:01.781Z,1.60
2022-08-09T20:37:37.928Z,1.90
2022-08-09T20:40:19.009Z,1.80
2022-08-09T20:43:00.216Z,2.00
2022-08-09T20:46:00.839Z,1.70
2022-08-09T20:48:32.667Z,1.83
2022-08-09T20:51:02.965Z,1.73
2022-08-09T20:53:37.173Z,1.97
2022-08-09T20:56:09.379Z,1.93
2022-08-09T20:58:58.309Z,1.90
2022-08-09T21:01:34.749Z,2.17
2022-08-09T21:05:51.578Z,2.20
2022-08-09T21:07:11.794Z,1.73
2022-08-09T21:09:45.668Z,2.40
2022-08-09T21:15:15.061Z,1.90
2022-08-09T21:18:24.450Z,2.30
2022-08-09T21:20:32.500Z,1.70
2022-08-09T21:23:01.112Z,2.00
2022-08-09T21:25:56.173Z,1.97
2022-08-09T21:28:34.226Z,1.80
2022-08-09T21:31:16.386Z,2.17
2022-08-09T21:33:50.637Z,2.43
2022-08-09T21:36:28.165Z,2.73
2022-08-09T21:38:58.803Z,2.17
2022-08-09T21:42:04.049Z,2.43
2022-08-09T21:44:32.512Z,1.90
2022-08-09T21:47:05.252Z,2.13
2022-08-09T21:49:40.198Z,2.07
2022-08-09T21:52:15.011Z,2.33
2022-08-09T21:54:50.868Z,2.50
2022-08-09T21:57:38.868Z,2.67
2022-08-09T22:00:25.224Z,2.40
2022-08-09T22:02:59.849Z,1.80
2022-08-09T22:05:35.934Z,2.50
2022-08-09T22:08:13.850Z,2.60
2022-08-09T22:11:49.173Z,2.13
2022-08-09T22:13:34.610Z,2.37
2022-08-09T22:16:04.924Z,2.60
2022-08-09T22:18:38.210Z,2.40
2022-08-09T22:21:09.594Z,2.30
2022-08-09T22:23:59.689Z,3.10
2022-08-09T22:26:35.249Z,2.47
2022-08-09T22:29:07.618Z,2.23
2022-08-09T22:31:50.179Z,1.90
2022-08-09T22:34:27.172Z,1.97
2022-08-09T22:36:55.599Z,2.60
2022-08-09T22:39:55.678Z,2.70
2022-08-09T22:42:21.466Z,2.13
2022-08-09T22:45:00.405Z,2.30
2022-08-09T22:48:15.660Z,2.63
2022-08-09T22:50:30.053Z,2.77
2022-08-09T22:52:58.773Z,2.60
2022-08-09T22:55:33.671Z,3.03
2022-08-09T22:58:11.385Z,2.43
2022-08-09T23:00:59.085Z,2.17
2022-08-09T23:04:02.827Z,2.23
2022-08-09T23:06:29.873Z,2.07
2022-08-09T23:09:06.568Z,2.60
2022-08-09T23:11:34.829Z,2.40
2022-08-09T23:14:04.061Z,2.73
2022-08-09T23:16:38.705Z,2.73
2022-08-09T23:19:06.791Z,2.13
2022-08-09T23:21:36.763Z,2.50
2022-08-09T23:24:07.535Z,2.30
2022-08-09T23:26:36.126Z,2.50
2022-08-09T23:29:04.981Z,2.90
2022-08-09T23:31:33.372Z,2.70
2022-08-09T23:34:02.558Z,2.10
2022-08-09T23:36:31.855Z,2.30
2022-08-09T23:39:01.424Z,1.93
2022-08-09T23:41:29.932Z,2.83
2022-08-09T23:43:59.313Z,2.60
2022-08-09T23:46:27.866Z,2.60
2022-08-09T23:48:56.118Z,2.60
2022-08-09T23:51:24.152Z,2.90
2022-08-09T23:53:55.198Z,2.77
2022-08-09T23:56:52.631Z,2.70
2022-08-09T23:59:14.820Z,2.43
